Skip Navigation LinksHome page > Weather > Current weather Skip Navigation Links

Current Weather

Heathrow, London

For information only: do not use for flight planning or navigation.
Latest weather
Observation time Wednesday, November 25, 2015 11:20 PM GMT
Local time Wednesday, November 25, 2015 11:39 PM GMT
Flight conditions Visual Meteorological Conditions
Wind direction West-Northwest (300°)
Wind speed 6 mph
Visibility 6.2 mi.
Sky condition
Ceiling unlimited
Temperature 46°F
Dewpoint 45°F
Altimeter 30.00 in.Hg
Derived measurements
Relative humidity 93%
Wind chill 44°F
Density altitude -790 ft.
Fully automated report.
No significant changes expected in the next two hours.
METAR EGLL 252320Z AUTO 30005KT 9999 NCD 08/07 Q1016 NOSIG


Location code

InnerDrive.Weather 4.0.5722.1 Release CLR 4.0.30319.34014
Copyright ©2015 Inner Drive Technology. All rights reserved. Portions Copyright ©1986-2015 David Braverman.

Find weather

Site navigation

Skip Navigation Links

Place info

Page info

PayPal - The safer, easier way to pay online!

Return home.

Copyright ©2015 Inner Drive Technology. Purveyors of fine, hand-crafted computer software. Page printed 2015-11-25T23:39:42 UTC.